To NAV CANADA Home Page Login to a new session Search on AWWS site Feedback and Comments Disclaimer Vers la page française équivalente Tips FAQ What's new on the site To the Forecasts and Observations / NOTAM section To "File a Flight Plan" website Publications and other links Update of the User's profile FIC Telephone Numbers My Weather Data Folder Route Weather Data Regional Weather Data Local Weather Data To the Forecasts and Observations / NOTAM section
Request Generated 09/01/2015 at 14:06:26 UTC . Weather information available at that time is displayed.

METAR/TAF

EARLTON/EARLTON (TIMISKAMING REGIONAL)/ON    (show WxCam)

METAR CYXR 011400Z AUTO 22010KT 9SM OVC017 20/17 A2998 RMK SLP154
DENSITY ALT 1400FT=
METAR CYXR 011300Z AUTO 21006KT 9SM BKN017 19/17 A2999 RMK SLP157
DENSITY ALT 1300FT=
SPECI CYXR 011246Z AUTO 20005KT 170V240 9SM BKN019 18/17 A2998 RMK
SLP155 DENSITY ALT 1300FT=
SPECI CYXR 011229Z AUTO 17003KT 140V210 6SM BR CLR 17/17 A2998 RMK
SLP155 DENSITY ALT 1100FT=
SPECI CYXR 011211Z AUTO 15003KT 3SM BR CLR 16/16 A2998 RMK SLP154
DENSITY ALT 1000FT=
METAR CYXR 011200Z AUTO 15004KT 2 1/2SM BR CLR 16/15 A2998 RMK SLP154
DENSITY ALT 1000FT=

TAF AMD CYXR 011307Z 0113/0124 22010KT P6SM SCT020 TEMPO 0113/0118
BKN020
RMK FCST BASED ON AUTO OBS. NXT FCST BY 011800Z=
Your time UTC time
Weather data provided by Environment Canada and NAV CANADA